CheckWX is a tool to help pilots better visualize weather data.  It is not intended as a substitute for an official pre-flight weather briefing.

06:40:59 UTC

KHPN TAF
Westchester County Airport
White Plains, New York, USA
KHPN 220530Z 2206/2306 VRB04KT P6SM SCT050 BKN250 FM220900 35006KT P6SM SCT050 BKN250 FM221400 34009KT P6SM SCT030 BKN120 TEMPO 2214/2216 BKN030 FM221800 34008KT P6SM VCSH FEW015 BKN040 FM230000 34008KT P6SM SCT015 BKN035 PROB30 2300/2306 -SHRA AMD NOT SKED

Apr-22@
06:00 UTC

Apr-22 @ 06:00 UTC

Apr-22@
09:00 UTC

Apr-22 @ 09:00 UTC

KHPN 220530Z 2206/2306 VRB04KT P6SM SCT050 BKN250
Wind
  • Variable at 4 KTS
Cloud Levels
  • Scattered at 5,000' AGL
  • Broken at 25,000' AGL

Apr-22@
09:00 UTC

Apr-22 @ 09:00 UTC

Apr-22@
14:00 UTC

Apr-22 @ 14:00 UTC

FM220900 35006KT P6SM SCT050 BKN250

From

From Standard forecast or significant change

Wind
  • 350° at 6 KTS
Cloud Levels
  • Scattered at 5,000' AGL
  • Broken at 25,000' AGL

Apr-22@
14:00 UTC

Apr-22 @ 14:00 UTC

Apr-22@
16:00 UTC

Apr-22 @ 16:00 UTC

TEMPO 2214/2216 BKN030

Temporary

Temporary Changes expected for less than half the time period

Cloud Levels
  • Broken at 3,000' AGL

Apr-22@
14:00 UTC

Apr-22 @ 14:00 UTC

Apr-22@
18:00 UTC

Apr-22 @ 18:00 UTC

FM221400 34009KT P6SM SCT030 BKN120

From

From Standard forecast or significant change

Wind
  • 340° at 9 KTS
Cloud Levels
  • Scattered at 3,000' AGL
  • Broken at 12,000' AGL

Apr-22@
18:00 UTC

Apr-22 @ 18:00 UTC

Apr-23@
00:00 UTC

Apr-23 @ 00:00 UTC

FM221800 34008KT P6SM VCSH FEW015 BKN040

From

From Standard forecast or significant change

Wind
  • 340° at 8 KTS
Cloud Levels
  • Few at 1,500' AGL
  • Broken at 4,000' AGL

Apr-23@
00:00 UTC

Apr-23 @ 00:00 UTC

Apr-23@
06:00 UTC

Apr-23 @ 06:00 UTC

PROB30 2300/2306 -SHRA AMD NOT SKED

Probable - 30% Likelihood

Probable - 30% Likelihood during this time.

Conditions
Light Rain

Apr-23@
00:00 UTC

Apr-23 @ 00:00 UTC

Apr-23@
06:00 UTC

Apr-23 @ 06:00 UTC

FM230000 34008KT P6SM SCT015 BKN035

From

From Standard forecast or significant change

Wind
  • 340° at 8 KTS
Cloud Levels
  • Scattered at 1,500' AGL
  • Broken at 3,500' AGL